createdAt,value
2022-12-09T00:00:14.781Z,6.13
2022-12-09T00:05:16.425Z,5.82
2022-12-09T00:10:18.004Z,6.32
2022-12-09T00:15:19.701Z,6.38
2022-12-09T00:20:21.134Z,6.45
2022-12-09T00:25:22.611Z,7.00
2022-12-09T00:30:24.072Z,6.43
2022-12-09T00:35:25.720Z,6.70
2022-12-09T00:40:27.197Z,7.07
2022-12-09T00:45:28.920Z,8.02
2022-12-09T00:50:31.014Z,6.50
2022-12-09T00:55:33.798Z,7.43
2022-12-09T01:00:35.453Z,8.32
2022-12-09T01:05:37.348Z,8.10
2022-12-09T01:10:40.922Z,7.47
2022-12-09T01:15:43.834Z,7.22
2022-12-09T01:20:45.534Z,6.97
2022-12-09T01:25:47.462Z,6.88
2022-12-09T01:30:49.050Z,7.75
2022-12-09T01:35:50.927Z,7.90
2022-12-09T01:40:53.906Z,7.85
2022-12-09T01:45:55.502Z,8.13
2022-12-09T01:51:05.767Z,8.23
2022-12-09T01:56:15.135Z,7.68
2022-12-09T02:01:18.133Z,7.63
2022-12-09T02:06:20.850Z,7.38
2022-12-09T02:11:29.048Z,7.95
2022-12-09T02:16:39.212Z,7.53
2022-12-09T02:22:13.747Z,9.02
2022-12-09T02:27:23.408Z,8.63
2022-12-09T02:32:48.031Z,8.35
2022-12-09T02:37:55.925Z,8.57
2022-12-09T02:43:00.113Z,8.73
2022-12-09T02:48:04.508Z,8.35
2022-12-09T02:53:12.170Z,8.48
2022-12-09T02:58:14.496Z,8.63
2022-12-09T03:03:17.719Z,9.00
2022-12-09T03:08:42.290Z,9.13
2022-12-09T03:14:03.637Z,9.65
2022-12-09T03:19:36.274Z,9.23
2022-12-09T03:25:01.105Z,10.13
2022-12-09T03:30:05.918Z,9.68
2022-12-09T03:35:12.644Z,9.77
2022-12-09T03:40:20.005Z,9.60
2022-12-09T03:45:24.868Z,9.25
2022-12-09T03:50:32.078Z,9.15
2022-12-09T03:55:43.210Z,9.27
2022-12-09T04:00:46.991Z,8.60
2022-12-09T04:05:49.073Z,9.25
2022-12-09T04:10:51.034Z,9.23
2022-12-09T04:15:52.490Z,8.25
2022-12-09T04:20:54.268Z,8.90
2022-12-09T04:25:56.034Z,8.40
2022-12-09T04:30:58.203Z,8.45
2022-12-09T04:36:12.481Z,8.30
2022-12-09T04:41:15.195Z,8.52
2022-12-09T04:46:18.736Z,8.25
2022-12-09T04:51:20.781Z,9.20
2022-12-09T04:56:22.892Z,9.00
2022-12-09T05:01:30.688Z,8.43
2022-12-09T05:06:33.602Z,9.05
2022-12-09T05:11:35.335Z,9.80
2022-12-09T05:16:37.420Z,8.32
2022-12-09T05:21:39.496Z,8.60
2022-12-09T05:26:41.139Z,9.25
2022-12-09T05:31:43.353Z,9.88
2022-12-09T05:36:45.013Z,10.93
2022-12-09T05:41:47.461Z,11.43
2022-12-09T05:46:49.878Z,11.95
2022-12-09T05:51:52.011Z,12.05
2022-12-09T05:56:53.527Z,12.90
2022-12-09T06:01:55.741Z,13.43
2022-12-09T06:06:57.853Z,13.20
2022-12-09T06:11:59.948Z,11.80
2022-12-09T06:17:01.758Z,12.00
2022-12-09T06:22:04.946Z,11.73
2022-12-09T06:27:07.035Z,11.00
2022-12-09T06:32:08.653Z,11.15
2022-12-09T06:37:11.501Z,12.82
2022-12-09T06:42:13.258Z,12.25
2022-12-09T06:47:14.762Z,11.55
2022-12-09T06:52:16.585Z,11.48
2022-12-09T06:57:18.404Z,10.85
2022-12-09T07:02:20.151Z,11.13
2022-12-09T07:07:23.233Z,10.83
2022-12-09T07:12:24.984Z,11.52
2022-12-09T07:17:27.046Z,15.07
2022-12-09T07:22:28.932Z,14.10
2022-12-09T07:27:30.470Z,16.98
2022-12-09T07:32:32.298Z,12.77
2022-12-09T07:37:34.247Z,10.57
2022-12-09T07:42:37.998Z,11.25
2022-12-09T12:35:40.688Z,12.55
2022-12-09T12:41:27.694Z,13.43
2022-12-09T12:46:55.632Z,12.57
2022-12-09T12:52:21.061Z,12.80
2022-12-09T12:58:06.673Z,11.95
2022-12-09T13:03:25.579Z,13.57
2022-12-09T13:08:42.551Z,12.85
2022-12-09T13:13:59.478Z,13.43
2022-12-09T13:19:44.152Z,13.95
2022-12-09T13:25:11.853Z,13.32
2022-12-09T13:30:20.735Z,13.82
2022-12-09T13:35:45.478Z,13.75
2022-12-09T13:40:46.894Z,16.83
2022-12-09T13:45:52.910Z,13.70
2022-12-09T13:50:59.242Z,13.68
2022-12-09T13:56:18.128Z,14.80
2022-12-09T14:01:24.746Z,13.85
2022-12-09T14:06:40.187Z,14.73
2022-12-09T14:11:47.071Z,13.60
2022-12-09T14:16:49.366Z,14.75
2022-12-09T14:22:19.614Z,15.63
2022-12-09T14:27:31.413Z,14.52
2022-12-09T14:32:51.073Z,14.98
2022-12-09T14:38:14.260Z,14.38
2022-12-09T14:43:35.423Z,15.20
2022-12-09T14:48:40.719Z,14.38
2022-12-09T14:53:42.766Z,13.90
2022-12-09T14:58:50.090Z,15.10
2022-12-09T15:03:58.407Z,14.70
2022-12-09T15:08:59.958Z,15.35
2022-12-09T15:14:24.931Z,17.58
2022-12-09T15:19:59.151Z,15.68
2022-12-09T15:24:51.460Z,15.55
2022-12-09T15:29:54.255Z,16.43
2022-12-09T15:35:14.367Z,18.25
2022-12-09T15:40:19.778Z,15.02
2022-12-09T15:45:25.399Z,17.20
2022-12-09T15:50:33.131Z,18.42
2022-12-09T15:55:40.305Z,30.95
2022-12-09T16:00:49.322Z,17.90
2022-12-09T16:05:56.478Z,16.85
2022-12-09T16:10:58.472Z,17.10
2022-12-09T16:16:02.920Z,18.77
2022-12-09T16:21:27.816Z,15.65
2022-12-09T16:26:32.927Z,14.88
2022-12-09T16:31:34.456Z,14.80
2022-12-09T16:36:35.875Z,17.00
2022-12-09T16:41:52.611Z,18.27
2022-12-09T16:47:09.252Z,16.35
2022-12-09T16:52:13.469Z,14.85
2022-12-09T16:57:16.896Z,14.93
2022-12-09T17:02:23.860Z,19.42
2022-12-09T17:07:25.354Z,15.43
2022-12-09T17:12:26.914Z,16.58
2022-12-09T17:17:28.575Z,19.33
2022-12-09T17:22:30.033Z,16.98
2022-12-09T17:27:31.563Z,17.70
2022-12-09T17:32:33.016Z,19.10
2022-12-09T17:37:34.429Z,15.77
2022-12-09T17:42:36.186Z,16.50
2022-12-09T17:47:37.635Z,16.05
2022-12-09T17:52:39.956Z,16.20
2022-12-09T17:57:41.511Z,22.97
2022-12-09T18:02:42.981Z,18.63
2022-12-09T18:07:44.499Z,18.02
2022-12-09T18:12:46.001Z,16.67
2022-12-09T18:17:47.388Z,17.25
2022-12-09T18:22:48.771Z,17.55
2022-12-09T18:27:50.764Z,14.57
2022-12-09T18:32:52.176Z,18.15
2022-12-09T18:37:53.625Z,20.35
2022-12-09T18:42:55.023Z,16.00
2022-12-09T18:47:56.422Z,17.17
2022-12-09T18:52:57.804Z,16.45
2022-12-09T18:57:59.242Z,14.95
2022-12-09T19:03:00.728Z,16.38
2022-12-09T19:08:02.407Z,14.45
2022-12-09T19:13:04.807Z,13.60
2022-12-09T19:18:06.228Z,14.03
2022-12-09T19:23:08.841Z,13.95
2022-12-09T19:28:14.136Z,13.77
2022-12-09T19:33:15.867Z,13.57
2022-12-09T19:38:17.428Z,13.02
2022-12-09T19:43:18.812Z,14.73
2022-12-09T19:48:20.683Z,14.30
2022-12-09T19:53:22.105Z,14.55
2022-12-09T19:58:23.523Z,13.18
2022-12-09T20:03:25.732Z,14.05
2022-12-09T20:08:27.224Z,13.60
2022-12-09T20:13:31.834Z,13.90
2022-12-09T20:18:34.102Z,13.05
2022-12-09T20:23:37.497Z,14.27
2022-12-09T20:28:40.207Z,13.55
2022-12-09T20:33:41.692Z,13.35
2022-12-09T20:38:48.303Z,12.68
2022-12-09T20:43:51.583Z,12.85
2022-12-09T20:48:53.284Z,14.25
2022-12-09T20:53:56.055Z,13.70
2022-12-09T20:58:58.243Z,14.05
2022-12-09T21:04:00.905Z,18.02
2022-12-09T21:09:05.714Z,18.45
2022-12-09T21:14:07.231Z,21.15
2022-12-09T21:19:12.586Z,20.15
2022-12-09T21:24:15.764Z,18.60
2022-12-09T21:34:18.572Z,16.63
2022-12-09T21:39:20.138Z,17.08
2022-12-09T21:44:22.318Z,17.73
2022-12-09T21:49:23.921Z,17.97
2022-12-09T21:54:25.623Z,19.10
2022-12-09T21:59:27.033Z,18.10
2022-12-09T22:04:28.431Z,19.10
2022-12-09T22:09:29.830Z,17.98
2022-12-09T22:14:31.262Z,18.95
2022-12-09T22:19:32.762Z,19.42
2022-12-09T22:24:34.294Z,18.95
2022-12-09T22:29:35.717Z,19.00
2022-12-09T22:34:37.111Z,19.25
2022-12-09T22:39:38.546Z,20.00
2022-12-09T22:44:40.564Z,21.17
2022-12-09T22:49:42.001Z,21.45
2022-12-09T22:54:43.417Z,20.23
2022-12-09T22:59:44.826Z,21.95
2022-12-09T23:04:46.239Z,22.92
2022-12-09T23:09:47.668Z,21.48
2022-12-09T23:14:49.086Z,22.15
2022-12-09T23:19:50.498Z,22.00
2022-12-09T23:24:51.915Z,21.95
2022-12-09T23:29:53.299Z,23.55
2022-12-09T23:34:55.252Z,22.52
2022-12-09T23:39:56.931Z,22.35
2022-12-09T23:44:58.360Z,23.25
2022-12-09T23:49:59.833Z,23.70
2022-12-09T23:55:04.527Z,24.55
